sensor_id;sensor_type;location;lat;lon;timestamp;P1;durP1;ratioP1;P2;durP2;ratioP2
44120;SDS011;29783;52.504;13.478;2023-12-20T00:01:31;5.13;;;4.60;;
44120;SDS011;29783;52.504;13.478;2023-12-20T00:03:57;5.95;;;5.45;;
44120;SDS011;29783;52.504;13.478;2023-12-20T00:06:22;7.15;;;5.82;;
44120;SDS011;29783;52.504;13.478;2023-12-20T00:08:48;5.53;;;5.03;;
44120;SDS011;29783;52.504;13.478;2023-12-20T00:11:14;8.30;;;4.78;;
44120;SDS011;29783;52.504;13.478;2023-12-20T00:13:39;6.07;;;5.50;;
44120;SDS011;29783;52.504;13.478;2023-12-20T00:16:05;5.22;;;4.72;;
44120;SDS011;29783;52.504;13.478;2023-12-20T00:18:30;5.63;;;5.07;;
44120;SDS011;29783;52.504;13.478;2023-12-20T00:20:56;6.18;;;5.57;;
44120;SDS011;29783;52.504;13.478;2023-12-20T00:23:21;6.30;;;5.70;;
44120;SDS011;29783;52.504;13.478;2023-12-20T00:25:48;7.68;;;5.47;;
44120;SDS011;29783;52.504;13.478;2023-12-20T00:28:14;5.35;;;4.85;;
44120;SDS011;29783;52.504;13.478;2023-12-20T00:30:39;6.43;;;5.50;;
44120;SDS011;29783;52.504;13.478;2023-12-20T00:33:05;5.32;;;4.82;;
44120;SDS011;29783;52.504;13.478;2023-12-20T00:35:31;5.30;;;4.85;;
44120;SDS011;29783;52.504;13.478;2023-12-20T00:37:57;5.07;;;4.57;;
44120;SDS011;29783;52.504;13.478;2023-12-20T00:40:23;5.90;;;5.30;;
44120;SDS011;29783;52.504;13.478;2023-12-20T00:42:49;5.47;;;4.95;;
44120;SDS011;29783;52.504;13.478;2023-12-20T00:45:15;5.18;;;4.68;;
44120;SDS011;29783;52.504;13.478;2023-12-20T00:47:40;5.95;;;5.22;;
44120;SDS011;29783;52.504;13.478;2023-12-20T00:50:06;5.20;;;4.70;;
44120;SDS011;29783;52.504;13.478;2023-12-20T00:52:32;5.25;;;4.75;;
44120;SDS011;29783;52.504;13.478;2023-12-20T00:54:58;5.60;;;5.10;;
44120;SDS011;29783;52.504;13.478;2023-12-20T00:57:23;6.00;;;5.40;;
44120;SDS011;29783;52.504;13.478;2023-12-20T00:59:49;5.57;;;5.07;;
44120;SDS011;29783;52.504;13.478;2023-12-20T01:02:14;5.60;;;5.10;;
44120;SDS011;29783;52.504;13.478;2023-12-20T01:04:40;5.22;;;4.72;;
44120;SDS011;29783;52.504;13.478;2023-12-20T01:07:06;5.22;;;4.72;;
44120;SDS011;29783;52.504;13.478;2023-12-20T01:09:31;4.75;;;3.90;;
44120;SDS011;29783;52.504;13.478;2023-12-20T01:11:57;6.68;;;5.57;;
44120;SDS011;29783;52.504;13.478;2023-12-20T01:14:22;5.55;;;5.05;;
44120;SDS011;29783;52.504;13.478;2023-12-20T01:16:48;4.88;;;4.25;;
44120;SDS011;29783;52.504;13.478;2023-12-20T01:19:13;5.60;;;5.10;;
44120;SDS011;29783;52.504;13.478;2023-12-20T01:21:39;5.70;;;4.18;;
44120;SDS011;29783;52.504;13.478;2023-12-20T01:24:05;4.50;;;4.10;;
44120;SDS011;29783;52.504;13.478;2023-12-20T01:26:31;5.32;;;4.82;;
44120;SDS011;29783;52.504;13.478;2023-12-20T01:28:56;5.13;;;4.72;;
44120;SDS011;29783;52.504;13.478;2023-12-20T01:31:22;6.03;;;5.53;;
44120;SDS011;29783;52.504;13.478;2023-12-20T01:33:48;4.93;;;4.45;;
44120;SDS011;29783;52.504;13.478;2023-12-20T01:36:13;3.83;;;3.47;;
44120;SDS011;29783;52.504;13.478;2023-12-20T01:38:39;3.67;;;3.38;;
44120;SDS011;29783;52.504;13.478;2023-12-20T01:41:05;4.88;;;4.45;;
44120;SDS011;29783;52.504;13.478;2023-12-20T01:43:30;6.63;;;5.03;;
44120;SDS011;29783;52.504;13.478;2023-12-20T01:45:57;4.88;;;4.47;;
44120;SDS011;29783;52.504;13.478;2023-12-20T01:48:23;6.07;;;5.47;;
44120;SDS011;29783;52.504;13.478;2023-12-20T01:50:51;3.47;;;3.17;;
44120;SDS011;29783;52.504;13.478;2023-12-20T01:53:17;5.30;;;4.80;;
44120;SDS011;29783;52.504;13.478;2023-12-20T01:55:46;4.70;;;4.28;;
44120;SDS011;29783;52.504;13.478;2023-12-20T01:58:15;5.70;;;5.20;;
44120;SDS011;29783;52.504;13.478;2023-12-20T02:00:41;5.90;;;5.18;;
44120;SDS011;29783;52.504;13.478;2023-12-20T02:03:07;4.88;;;4.40;;
44120;SDS011;29783;52.504;13.478;2023-12-20T02:05:34;4.40;;;4.00;;
44120;SDS011;29783;52.504;13.478;2023-12-20T02:08:00;5.97;;;3.90;;
44120;SDS011;29783;52.504;13.478;2023-12-20T02:10:26;4.53;;;4.20;;
44120;SDS011;29783;52.504;13.478;2023-12-20T02:12:52;4.70;;;4.30;;
44120;SDS011;29783;52.504;13.478;2023-12-20T02:15:18;5.30;;;4.80;;
44120;SDS011;29783;52.504;13.478;2023-12-20T02:17:44;5.85;;;4.38;;
44120;SDS011;29783;52.504;13.478;2023-12-20T02:20:11;5.47;;;4.97;;
44120;SDS011;29783;52.504;13.478;2023-12-20T02:22:37;2.03;;;1.90;;
44120;SDS011;29783;52.504;13.478;2023-12-20T02:25:02;5.10;;;2.00;;
44120;SDS011;29783;52.504;13.478;2023-12-20T02:27:28;4.35;;;1.52;;
44120;SDS011;29783;52.504;13.478;2023-12-20T02:29:54;3.05;;;1.63;;
44120;SDS011;29783;52.504;13.478;2023-12-20T02:32:20;2.40;;;1.88;;
44120;SDS011;29783;52.504;13.478;2023-12-20T02:34:47;2.25;;;2.00;;
44120;SDS011;29783;52.504;13.478;2023-12-20T02:37:13;3.10;;;2.03;;
44120;SDS011;29783;52.504;13.478;2023-12-20T02:39:39;4.13;;;2.40;;
44120;SDS011;29783;52.504;13.478;2023-12-20T02:42:05;2.90;;;2.33;;
44120;SDS011;29783;52.504;13.478;2023-12-20T02:44:30;2.85;;;2.35;;
44120;SDS011;29783;52.504;13.478;2023-12-20T02:46:56;3.35;;;2.95;;
44120;SDS011;29783;52.504;13.478;2023-12-20T02:49:21;4.47;;;3.13;;
44120;SDS011;29783;52.504;13.478;2023-12-20T02:51:47;3.90;;;3.53;;
44120;SDS011;29783;52.504;13.478;2023-12-20T02:54:13;5.60;;;3.58;;
44120;SDS011;29783;52.504;13.478;2023-12-20T02:56:38;3.85;;;3.42;;
44120;SDS011;29783;52.504;13.478;2023-12-20T02:59:04;5.90;;;4.45;;
44120;SDS011;29783;52.504;13.478;2023-12-20T03:01:31;4.35;;;3.95;;
44120;SDS011;29783;52.504;13.478;2023-12-20T03:03:56;7.20;;;4.65;;
44120;SDS011;29783;52.504;13.478;2023-12-20T03:06:22;5.32;;;2.85;;
44120;SDS011;29783;52.504;13.478;2023-12-20T03:08:48;3.10;;;2.85;;
44120;SDS011;29783;52.504;13.478;2023-12-20T03:11:13;6.88;;;3.63;;
44120;SDS011;29783;52.504;13.478;2023-12-20T03:13:39;5.78;;;3.67;;
44120;SDS011;29783;52.504;13.478;2023-12-20T03:16:08;12.82;;;4.07;;
44120;SDS011;29783;52.504;13.478;2023-12-20T03:18:34;6.85;;;2.95;;
44120;SDS011;29783;52.504;13.478;2023-12-20T03:21:00;12.77;;;2.90;;
44120;SDS011;29783;52.504;13.478;2023-12-20T03:23:25;8.27;;;3.30;;
44120;SDS011;29783;52.504;13.478;2023-12-20T03:25:52;7.95;;;3.67;;
44120;SDS011;29783;52.504;13.478;2023-12-20T03:28:17;4.07;;;1.90;;
44120;SDS011;29783;52.504;13.478;2023-12-20T03:30:44;10.00;;;3.40;;
44120;SDS011;29783;52.504;13.478;2023-12-20T03:33:09;6.05;;;2.38;;
44120;SDS011;29783;52.504;13.478;2023-12-20T03:35:35;6.38;;;1.73;;
44120;SDS011;29783;52.504;13.478;2023-12-20T03:38:01;7.40;;;2.67;;
44120;SDS011;29783;52.504;13.478;2023-12-20T03:40:27;9.30;;;2.83;;
44120;SDS011;29783;52.504;13.478;2023-12-20T03:42:52;12.88;;;2.38;;
44120;SDS011;29783;52.504;13.478;2023-12-20T03:45:18;10.48;;;2.50;;
44120;SDS011;29783;52.504;13.478;2023-12-20T03:47:43;13.32;;;2.67;;
44120;SDS011;29783;52.504;13.478;2023-12-20T03:50:09;12.32;;;2.55;;
44120;SDS011;29783;52.504;13.478;2023-12-20T03:52:34;12.07;;;2.13;;
44120;SDS011;29783;52.504;13.478;2023-12-20T03:55:00;11.52;;;2.35;;
44120;SDS011;29783;52.504;13.478;2023-12-20T03:57:26;12.85;;;2.47;;
44120;SDS011;29783;52.504;13.478;2023-12-20T03:59:51;13.77;;;2.25;;
44120;SDS011;29783;52.504;13.478;2023-12-20T04:02:17;8.80;;;1.90;;
44120;SDS011;29783;52.504;13.478;2023-12-20T04:04:43;5.72;;;1.33;;
44120;SDS011;29783;52.504;13.478;2023-12-20T04:07:08;8.25;;;1.95;;
44120;SDS011;29783;52.504;13.478;2023-12-20T04:09:34;17.23;;;2.20;;
44120;SDS011;29783;52.504;13.478;2023-12-20T04:12:00;10.77;;;1.70;;
44120;SDS011;29783;52.504;13.478;2023-12-20T04:14:25;9.80;;;2.00;;
44120;SDS011;29783;52.504;13.478;2023-12-20T04:16:51;19.02;;;2.10;;
44120;SDS011;29783;52.504;13.478;2023-12-20T04:19:17;8.68;;;2.13;;
44120;SDS011;29783;52.504;13.478;2023-12-20T04:21:42;8.07;;;1.55;;
44120;SDS011;29783;52.504;13.478;2023-12-20T04:24:08;7.40;;;1.55;;
44120;SDS011;29783;52.504;13.478;2023-12-20T04:26:33;10.15;;;1.83;;
44120;SDS011;29783;52.504;13.478;2023-12-20T04:28:59;12.23;;;2.08;;
44120;SDS011;29783;52.504;13.478;2023-12-20T04:31:24;15.35;;;1.92;;
44120;SDS011;29783;52.504;13.478;2023-12-20T04:33:50;9.32;;;1.83;;
44120;SDS011;29783;52.504;13.478;2023-12-20T04:36:16;12.13;;;1.98;;
44120;SDS011;29783;52.504;13.478;2023-12-20T04:38:42;15.35;;;2.17;;
44120;SDS011;29783;52.504;13.478;2023-12-20T04:41:08;15.38;;;1.90;;
44120;SDS011;29783;52.504;13.478;2023-12-20T04:43:33;12.55;;;2.22;;
44120;SDS011;29783;52.504;13.478;2023-12-20T04:45:59;19.60;;;2.03;;
44120;SDS011;29783;52.504;13.478;2023-12-20T04:48:24;12.80;;;2.00;;
44120;SDS011;29783;52.504;13.478;2023-12-20T04:50:50;17.73;;;2.28;;
44120;SDS011;29783;52.504;13.478;2023-12-20T04:53:15;9.30;;;1.95;;
44120;SDS011;29783;52.504;13.478;2023-12-20T04:55:41;13.90;;;1.92;;
44120;SDS011;29783;52.504;13.478;2023-12-20T04:58:07;10.68;;;1.80;;
44120;SDS011;29783;52.504;13.478;2023-12-20T05:00:32;25.55;;;2.25;;
44120;SDS011;29783;52.504;13.478;2023-12-20T05:02:58;14.48;;;1.73;;
44120;SDS011;29783;52.504;13.478;2023-12-20T05:05:23;24.50;;;2.70;;
44120;SDS011;29783;52.504;13.478;2023-12-20T05:07:49;14.23;;;2.08;;
44120;SDS011;29783;52.504;13.478;2023-12-20T05:10:15;13.02;;;2.30;;
44120;SDS011;29783;52.504;13.478;2023-12-20T05:12:41;11.95;;;2.20;;
44120;SDS011;29783;52.504;13.478;2023-12-20T05:15:06;11.85;;;2.20;;
44120;SDS011;29783;52.504;13.478;2023-12-20T05:17:32;17.92;;;2.20;;
44120;SDS011;29783;52.504;13.478;2023-12-20T05:19:58;11.00;;;2.45;;
44120;SDS011;29783;52.504;13.478;2023-12-20T05:22:23;16.45;;;2.72;;
44120;SDS011;29783;52.504;13.478;2023-12-20T05:24:49;11.90;;;3.22;;
44120;SDS011;29783;52.504;13.478;2023-12-20T05:27:15;15.90;;;2.40;;
44120;SDS011;29783;52.504;13.478;2023-12-20T05:29:40;16.10;;;2.45;;
44120;SDS011;29783;52.504;13.478;2023-12-20T05:32:06;13.50;;;2.17;;
44120;SDS011;29783;52.504;13.478;2023-12-20T05:34:32;17.13;;;1.92;;
44120;SDS011;29783;52.504;13.478;2023-12-20T05:36:57;5.15;;;0.95;;
44120;SDS011;29783;52.504;13.478;2023-12-20T05:39:23;8.60;;;1.10;;
44120;SDS011;29783;52.504;13.478;2023-12-20T05:41:49;11.07;;;1.40;;
44120;SDS011;29783;52.504;13.478;2023-12-20T05:44:14;8.48;;;1.63;;
44120;SDS011;29783;52.504;13.478;2023-12-20T05:46:40;16.85;;;2.00;;
44120;SDS011;29783;52.504;13.478;2023-12-20T05:49:06;14.82;;;2.40;;
44120;SDS011;29783;52.504;13.478;2023-12-20T05:51:32;15.15;;;1.60;;
44120;SDS011;29783;52.504;13.478;2023-12-20T05:53:58;11.73;;;2.00;;
44120;SDS011;29783;52.504;13.478;2023-12-20T05:56:23;15.25;;;1.58;;
44120;SDS011;29783;52.504;13.478;2023-12-20T05:58:49;19.48;;;2.17;;
44120;SDS011;29783;52.504;13.478;2023-12-20T06:01:15;11.45;;;1.58;;
44120;SDS011;29783;52.504;13.478;2023-12-20T06:03:43;10.30;;;1.85;;
44120;SDS011;29783;52.504;13.478;2023-12-20T06:06:10;8.45;;;1.88;;
44120;SDS011;29783;52.504;13.478;2023-12-20T06:08:37;12.15;;;1.48;;
44120;SDS011;29783;52.504;13.478;2023-12-20T06:11:03;12.00;;;1.48;;
44120;SDS011;29783;52.504;13.478;2023-12-20T06:13:30;8.80;;;1.58;;
44120;SDS011;29783;52.504;13.478;2023-12-20T06:15:56;9.80;;;2.00;;
44120;SDS011;29783;52.504;13.478;2023-12-20T06:18:22;11.55;;;1.67;;
44120;SDS011;29783;52.504;13.478;2023-12-20T06:20:48;23.10;;;2.63;;
44120;SDS011;29783;52.504;13.478;2023-12-20T06:23:13;7.05;;;1.48;;
44120;SDS011;29783;52.504;13.478;2023-12-20T06:25:48;9.60;;;1.90;;
44120;SDS011;29783;52.504;13.478;2023-12-20T06:28:14;9.15;;;2.03;;
44120;SDS011;29783;52.504;13.478;2023-12-20T06:30:40;9.15;;;2.30;;
44120;SDS011;29783;52.504;13.478;2023-12-20T06:33:05;14.55;;;1.70;;
44120;SDS011;29783;52.504;13.478;2023-12-20T06:35:31;13.25;;;2.17;;
44120;SDS011;29783;52.504;13.478;2023-12-20T06:37:57;5.75;;;1.27;;
44120;SDS011;29783;52.504;13.478;2023-12-20T06:40:26;15.15;;;2.10;;
44120;SDS011;29783;52.504;13.478;2023-12-20T06:42:52;14.25;;;2.08;;
44120;SDS011;29783;52.504;13.478;2023-12-20T06:45:18;11.82;;;1.95;;
44120;SDS011;29783;52.504;13.478;2023-12-20T06:47:43;18.73;;;1.80;;
44120;SDS011;29783;52.504;13.478;2023-12-20T06:50:09;15.15;;;1.73;;
44120;SDS011;29783;52.504;13.478;2023-12-20T06:52:34;12.38;;;2.10;;
44120;SDS011;29783;52.504;13.478;2023-12-20T06:55:00;19.23;;;1.90;;
44120;SDS011;29783;52.504;13.478;2023-12-20T06:57:26;15.98;;;2.03;;
44120;SDS011;29783;52.504;13.478;2023-12-20T06:59:52;16.23;;;2.33;;
44120;SDS011;29783;52.504;13.478;2023-12-20T07:02:18;4.70;;;0.70;;
44120;SDS011;29783;52.504;13.478;2023-12-20T07:04:43;14.35;;;1.98;;
44120;SDS011;29783;52.504;13.478;2023-12-20T07:07:09;8.95;;;1.80;;
44120;SDS011;29783;52.504;13.478;2023-12-20T07:09:35;12.98;;;1.73;;
44120;SDS011;29783;52.504;13.478;2023-12-20T07:12:00;15.48;;;1.77;;
44120;SDS011;29783;52.504;13.478;2023-12-20T07:14:26;3.70;;;0.65;;
44120;SDS011;29783;52.504;13.478;2023-12-20T07:16:52;6.60;;;1.52;;
44120;SDS011;29783;52.504;13.478;2023-12-20T07:19:18;15.00;;;1.83;;
44120;SDS011;29783;52.504;13.478;2023-12-20T07:21:43;11.30;;;2.22;;
44120;SDS011;29783;52.504;13.478;2023-12-20T07:24:09;12.00;;;2.38;;
44120;SDS011;29783;52.504;13.478;2023-12-20T07:26:35;16.33;;;2.83;;
44120;SDS011;29783;52.504;13.478;2023-12-20T07:29:02;9.10;;;1.80;;
44120;SDS011;29783;52.504;13.478;2023-12-20T07:31:29;7.75;;;2.10;;
44120;SDS011;29783;52.504;13.478;2023-12-20T07:33:54;11.05;;;2.47;;
44120;SDS011;29783;52.504;13.478;2023-12-20T07:36:20;9.02;;;1.63;;
44120;SDS011;29783;52.504;13.478;2023-12-20T07:38:46;12.68;;;1.98;;
44120;SDS011;29783;52.504;13.478;2023-12-20T07:41:12;7.30;;;1.52;;
44120;SDS011;29783;52.504;13.478;2023-12-20T07:43:37;9.32;;;1.80;;
44120;SDS011;29783;52.504;13.478;2023-12-20T07:46:06;17.33;;;2.20;;
44120;SDS011;29783;52.504;13.478;2023-12-20T07:48:34;11.00;;;1.95;;
44120;SDS011;29783;52.504;13.478;2023-12-20T07:51:00;10.60;;;1.90;;
44120;SDS011;29783;52.504;13.478;2023-12-20T07:53:26;17.40;;;2.95;;
44120;SDS011;29783;52.504;13.478;2023-12-20T07:55:52;12.98;;;1.90;;
44120;SDS011;29783;52.504;13.478;2023-12-20T07:58:18;7.90;;;1.30;;
44120;SDS011;29783;52.504;13.478;2023-12-20T08:00:43;14.75;;;2.10;;
44120;SDS011;29783;52.504;13.478;2023-12-20T08:03:09;12.13;;;1.33;;
44120;SDS011;29783;52.504;13.478;2023-12-20T08:05:35;17.52;;;2.45;;
44120;SDS011;29783;52.504;13.478;2023-12-20T08:08:01;6.47;;;1.63;;
44120;SDS011;29783;52.504;13.478;2023-12-20T08:10:26;8.82;;;2.05;;
44120;SDS011;29783;52.504;13.478;2023-12-20T08:12:54;8.48;;;2.10;;
44120;SDS011;29783;52.504;13.478;2023-12-20T08:15:20;16.90;;;2.05;;
44120;SDS011;29783;52.504;13.478;2023-12-20T08:17:45;13.77;;;2.33;;
44120;SDS011;29783;52.504;13.478;2023-12-20T08:20:11;9.13;;;1.65;;
44120;SDS011;29783;52.504;13.478;2023-12-20T08:22:37;11.38;;;2.13;;
44120;SDS011;29783;52.504;13.478;2023-12-20T08:25:02;6.82;;;1.13;;
44120;SDS011;29783;52.504;13.478;2023-12-20T08:27:28;6.68;;;1.92;;
44120;SDS011;29783;52.504;13.478;2023-12-20T08:29:54;5.25;;;1.25;;
44120;SDS011;29783;52.504;13.478;2023-12-20T08:32:19;11.75;;;1.83;;
44120;SDS011;29783;52.504;13.478;2023-12-20T08:34:45;11.60;;;1.88;;
44120;SDS011;29783;52.504;13.478;2023-12-20T08:37:10;11.48;;;2.05;;
44120;SDS011;29783;52.504;13.478;2023-12-20T08:39:36;8.32;;;1.80;;
44120;SDS011;29783;52.504;13.478;2023-12-20T08:42:02;9.32;;;1.95;;
44120;SDS011;29783;52.504;13.478;2023-12-20T08:44:27;9.95;;;1.98;;
44120;SDS011;29783;52.504;13.478;2023-12-20T08:46:53;15.68;;;2.28;;
44120;SDS011;29783;52.504;13.478;2023-12-20T08:49:22;4.90;;;1.40;;
44120;SDS011;29783;52.504;13.478;2023-12-20T08:51:47;7.97;;;1.70;;
44120;SDS011;29783;52.504;13.478;2023-12-20T08:54:13;7.63;;;1.70;;
44120;SDS011;29783;52.504;13.478;2023-12-20T08:56:39;10.27;;;1.80;;
44120;SDS011;29783;52.504;13.478;2023-12-20T08:59:04;8.73;;;1.90;;
44120;SDS011;29783;52.504;13.478;2023-12-20T09:01:30;3.70;;;1.45;;
44120;SDS011;29783;52.504;13.478;2023-12-20T09:03:55;15.68;;;2.08;;
44120;SDS011;29783;52.504;13.478;2023-12-20T09:06:21;3.25;;;1.00;;
44120;SDS011;29783;52.504;13.478;2023-12-20T09:08:47;4.88;;;1.02;;
44120;SDS011;29783;52.504;13.478;2023-12-20T09:11:12;9.43;;;1.38;;
44120;SDS011;29783;52.504;13.478;2023-12-20T09:13:38;8.10;;;1.20;;
44120;SDS011;29783;52.504;13.478;2023-12-20T09:16:03;16.52;;;2.10;;
44120;SDS011;29783;52.504;13.478;2023-12-20T09:18:29;9.85;;;2.10;;
44120;SDS011;29783;52.504;13.478;2023-12-20T09:20:55;5.57;;;0.98;;
44120;SDS011;29783;52.504;13.478;2023-12-20T09:23:20;11.85;;;1.85;;
44120;SDS011;29783;52.504;13.478;2023-12-20T09:25:46;6.10;;;1.58;;
44120;SDS011;29783;52.504;13.478;2023-12-20T09:28:12;16.33;;;2.03;;
44120;SDS011;29783;52.504;13.478;2023-12-20T09:30:37;16.50;;;2.47;;
44120;SDS011;29783;52.504;13.478;2023-12-20T09:33:05;9.43;;;1.55;;
44120;SDS011;29783;52.504;13.478;2023-12-20T09:35:32;17.42;;;2.15;;
44120;SDS011;29783;52.504;13.478;2023-12-20T09:37:57;8.63;;;1.98;;
44120;SDS011;29783;52.504;13.478;2023-12-20T09:40:23;12.93;;;2.17;;
44120;SDS011;29783;52.504;13.478;2023-12-20T09:45:25;12.55;;;2.03;;
44120;SDS011;29783;52.504;13.478;2023-12-20T09:47:52;6.43;;;1.63;;
44120;SDS011;29783;52.504;13.478;2023-12-20T09:50:19;12.15;;;1.42;;
44120;SDS011;29783;52.504;13.478;2023-12-20T09:52:48;6.80;;;1.35;;
44120;SDS011;29783;52.504;13.478;2023-12-20T09:55:17;12.55;;;2.15;;
44120;SDS011;29783;52.504;13.478;2023-12-20T09:57:47;12.23;;;2.17;;
44120;SDS011;29783;52.504;13.478;2023-12-20T10:00:14;17.17;;;2.22;;
44120;SDS011;29783;52.504;13.478;2023-12-20T10:03:01;10.30;;;1.90;;
44120;SDS011;29783;52.504;13.478;2023-12-20T10:05:30;14.27;;;2.17;;
44120;SDS011;29783;52.504;13.478;2023-12-20T10:07:57;9.20;;;1.65;;
44120;SDS011;29783;52.504;13.478;2023-12-20T10:10:24;14.73;;;1.48;;
44120;SDS011;29783;52.504;13.478;2023-12-20T10:13:10;18.70;;;2.58;;
44120;SDS011;29783;52.504;13.478;2023-12-20T10:15:37;17.08;;;1.95;;
44120;SDS011;29783;52.504;13.478;2023-12-20T10:18:03;14.82;;;2.55;;
44120;SDS011;29783;52.504;13.478;2023-12-20T10:20:30;8.35;;;1.75;;
44120;SDS011;29783;52.504;13.478;2023-12-20T10:22:56;25.02;;;2.67;;
44120;SDS011;29783;52.504;13.478;2023-12-20T10:25:23;11.25;;;1.75;;
44120;SDS011;29783;52.504;13.478;2023-12-20T10:27:49;15.15;;;2.50;;
44120;SDS011;29783;52.504;13.478;2023-12-20T10:30:33;6.43;;;1.33;;
44120;SDS011;29783;52.504;13.478;2023-12-20T10:32:58;7.70;;;1.30;;
44120;SDS011;29783;52.504;13.478;2023-12-20T10:35:24;11.80;;;2.17;;
44120;SDS011;29783;52.504;13.478;2023-12-20T10:37:51;38.92;;;3.03;;
44120;SDS011;29783;52.504;13.478;2023-12-20T10:40:21;16.38;;;2.40;;
44120;SDS011;29783;52.504;13.478;2023-12-20T10:42:47;11.65;;;1.67;;
44120;SDS011;29783;52.504;13.478;2023-12-20T10:45:15;13.43;;;2.53;;
44120;SDS011;29783;52.504;13.478;2023-12-20T10:47:42;5.40;;;1.65;;
44120;SDS011;29783;52.504;13.478;2023-12-20T10:50:11;8.38;;;1.92;;
44120;SDS011;29783;52.504;13.478;2023-12-20T10:52:37;9.18;;;2.30;;
44120;SDS011;29783;52.504;13.478;2023-12-20T10:55:04;11.98;;;2.72;;
44120;SDS011;29783;52.504;13.478;2023-12-20T10:57:30;12.57;;;1.73;;
44120;SDS011;29783;52.504;13.478;2023-12-20T10:59:58;9.20;;;1.95;;
44120;SDS011;29783;52.504;13.478;2023-12-20T11:02:30;13.23;;;2.50;;
44120;SDS011;29783;52.504;13.478;2023-12-20T11:05:05;9.48;;;2.22;;
44120;SDS011;29783;52.504;13.478;2023-12-20T11:07:52;14.63;;;2.65;;
44120;SDS011;29783;52.504;13.478;2023-12-20T11:10:40;16.58;;;2.92;;
44120;SDS011;29783;52.504;13.478;2023-12-20T11:13:28;5.95;;;1.30;;
44120;SDS011;29783;52.504;13.478;2023-12-20T11:15:57;11.68;;;2.45;;
44120;SDS011;29783;52.504;13.478;2023-12-20T11:18:30;5.90;;;1.85;;
44120;SDS011;29783;52.504;13.478;2023-12-20T11:21:00;15.25;;;2.65;;
44120;SDS011;29783;52.504;13.478;2023-12-20T11:23:29;14.10;;;2.53;;
44120;SDS011;29783;52.504;13.478;2023-12-20T11:25:56;16.35;;;3.05;;
44120;SDS011;29783;52.504;13.478;2023-12-20T11:28:25;4.50;;;1.05;;
44120;SDS011;29783;52.504;13.478;2023-12-20T11:33:24;11.40;;;1.92;;
44120;SDS011;29783;52.504;13.478;2023-12-20T11:35:51;10.07;;;2.22;;
44120;SDS011;29783;52.504;13.478;2023-12-20T11:38:20;11.93;;;2.55;;
44120;SDS011;29783;52.504;13.478;2023-12-20T11:40:47;13.60;;;2.45;;
44120;SDS011;29783;52.504;13.478;2023-12-20T11:43:29;10.23;;;2.53;;
44120;SDS011;29783;52.504;13.478;2023-12-20T11:45:55;12.60;;;2.60;;
44120;SDS011;29783;52.504;13.478;2023-12-20T11:48:30;11.85;;;2.10;;
44120;SDS011;29783;52.504;13.478;2023-12-20T11:50:56;12.15;;;1.80;;
44120;SDS011;29783;52.504;13.478;2023-12-20T11:53:22;14.20;;;2.03;;
44120;SDS011;29783;52.504;13.478;2023-12-20T11:55:48;11.75;;;2.30;;
44120;SDS011;29783;52.504;13.478;2023-12-20T11:58:14;5.07;;;1.42;;
44120;SDS011;29783;52.504;13.478;2023-12-20T12:00:41;13.73;;;2.55;;
44120;SDS011;29783;52.504;13.478;2023-12-20T12:03:08;5.78;;;1.92;;
44120;SDS011;29783;52.504;13.478;2023-12-20T12:05:34;5.38;;;1.35;;
44120;SDS011;29783;52.504;13.478;2023-12-20T12:08:00;9.73;;;1.65;;
44120;SDS011;29783;52.504;13.478;2023-12-20T12:10:27;7.65;;;1.58;;
44120;SDS011;29783;52.504;13.478;2023-12-20T12:12:53;12.27;;;2.45;;
44120;SDS011;29783;52.504;13.478;2023-12-20T12:15:19;13.27;;;2.55;;
44120;SDS011;29783;52.504;13.478;2023-12-20T12:17:52;8.98;;;1.83;;
44120;SDS011;29783;52.504;13.478;2023-12-20T12:20:19;13.27;;;2.30;;
44120;SDS011;29783;52.504;13.478;2023-12-20T12:22:45;14.23;;;2.05;;
44120;SDS011;29783;52.504;13.478;2023-12-20T12:25:12;10.57;;;2.00;;
44120;SDS011;29783;52.504;13.478;2023-12-20T12:27:39;7.55;;;1.48;;
44120;SDS011;29783;52.504;13.478;2023-12-20T12:30:06;6.78;;;1.95;;
44120;SDS011;29783;52.504;13.478;2023-12-20T12:32:33;10.07;;;2.20;;
44120;SDS011;29783;52.504;13.478;2023-12-20T12:34:59;9.90;;;2.50;;
44120;SDS011;29783;52.504;13.478;2023-12-20T12:37:24;7.25;;;1.48;;
44120;SDS011;29783;52.504;13.478;2023-12-20T12:39:53;13.43;;;2.50;;
44120;SDS011;29783;52.504;13.478;2023-12-20T12:42:19;28.75;;;2.60;;
44120;SDS011;29783;52.504;13.478;2023-12-20T12:44:46;6.43;;;1.88;;
44120;SDS011;29783;52.504;13.478;2023-12-20T12:47:12;8.23;;;2.00;;
44120;SDS011;29783;52.504;13.478;2023-12-20T12:49:37;13.90;;;2.05;;
44120;SDS011;29783;52.504;13.478;2023-12-20T12:52:05;10.00;;;2.22;;
44120;SDS011;29783;52.504;13.478;2023-12-20T12:54:31;10.13;;;2.28;;
44120;SDS011;29783;52.504;13.478;2023-12-20T12:56:56;7.97;;;1.88;;
44120;SDS011;29783;52.504;13.478;2023-12-20T12:59:23;12.55;;;2.00;;
44120;SDS011;29783;52.504;13.478;2023-12-20T13:01:48;7.88;;;1.77;;
44120;SDS011;29783;52.504;13.478;2023-12-20T13:04:14;13.38;;;2.38;;
44120;SDS011;29783;52.504;13.478;2023-12-20T13:06:40;6.35;;;0.75;;
44120;SDS011;29783;52.504;13.478;2023-12-20T13:09:07;5.55;;;1.10;;
44120;SDS011;29783;52.504;13.478;2023-12-20T13:11:34;5.63;;;1.80;;
44120;SDS011;29783;52.504;13.478;2023-12-20T13:14:00;4.13;;;1.48;;
44120;SDS011;29783;52.504;13.478;2023-12-20T13:16:26;5.70;;;1.60;;
44120;SDS011;29783;52.504;13.478;2023-12-20T13:18:52;15.07;;;2.60;;
44120;SDS011;29783;52.504;13.478;2023-12-20T13:21:17;16.27;;;3.22;;
44120;SDS011;29783;52.504;13.478;2023-12-20T13:23:43;9.73;;;1.75;;
44120;SDS011;29783;52.504;13.478;2023-12-20T13:26:08;3.17;;;1.23;;
44120;SDS011;29783;52.504;13.478;2023-12-20T13:28:34;19.45;;;2.55;;
44120;SDS011;29783;52.504;13.478;2023-12-20T13:31:00;5.15;;;1.85;;
44120;SDS011;29783;52.504;13.478;2023-12-20T13:33:25;8.32;;;1.23;;
44120;SDS011;29783;52.504;13.478;2023-12-20T13:35:51;3.08;;;1.17;;
44120;SDS011;29783;52.504;13.478;2023-12-20T13:38:17;3.92;;;1.20;;
44120;SDS011;29783;52.504;13.478;2023-12-20T13:40:42;3.72;;;1.10;;
44120;SDS011;29783;52.504;13.478;2023-12-20T13:43:08;0.73;;;0.40;;
44120;SDS011;29783;52.504;13.478;2023-12-20T13:45:36;4.75;;;0.82;;
44120;SDS011;29783;52.504;13.478;2023-12-20T13:48:01;2.42;;;0.73;;
44120;SDS011;29783;52.504;13.478;2023-12-20T13:50:27;3.47;;;0.68;;
44120;SDS011;29783;52.504;13.478;2023-12-20T13:52:53;2.75;;;0.80;;
44120;SDS011;29783;52.504;13.478;2023-12-20T13:55:18;5.93;;;1.00;;
44120;SDS011;29783;52.504;13.478;2023-12-20T13:57:47;6.13;;;0.90;;
44120;SDS011;29783;52.504;13.478;2023-12-20T14:00:13;2.10;;;0.80;;
44120;SDS011;29783;52.504;13.478;2023-12-20T14:02:40;4.28;;;1.00;;
44120;SDS011;29783;52.504;13.478;2023-12-20T14:05:06;3.30;;;0.70;;
44120;SDS011;29783;52.504;13.478;2023-12-20T14:07:32;2.17;;;0.95;;
44120;SDS011;29783;52.504;13.478;2023-12-20T14:09:58;4.22;;;1.60;;
44120;SDS011;29783;52.504;13.478;2023-12-20T14:12:24;5.18;;;1.02;;
44120;SDS011;29783;52.504;13.478;2023-12-20T14:14:50;5.60;;;1.48;;
44120;SDS011;29783;52.504;13.478;2023-12-20T14:17:16;7.45;;;1.38;;
44120;SDS011;29783;52.504;13.478;2023-12-20T14:19:43;4.45;;;1.40;;
44120;SDS011;29783;52.504;13.478;2023-12-20T14:22:08;5.97;;;1.92;;
44120;SDS011;29783;52.504;13.478;2023-12-20T14:24:34;2.58;;;1.02;;
44120;SDS011;29783;52.504;13.478;2023-12-20T14:27:01;1.48;;;0.65;;
44120;SDS011;29783;52.504;13.478;2023-12-20T14:29:27;5.15;;;1.15;;